Terminal Aerodrome Forecast
Issued by NWS

Home | Current Version | Previous Version | Text Only | Print | Product List | Glossary On
Versions: 1 2 3 4 5 6 7 8 9 10 11 12 13 14 15 16 17 18 19 20 21 22 23 24 25 26 27 28 29 30 31 32 33 34 35 36 37 38
000
FTUS43 KDTX 282300
TAFPTK
TAF
KPTK 282320Z 2900/2924 34007KT P6SM SCT035 BKN070
     FM290200 31005KT P6SM SCT070
     FM290600 29004KT P6SM FEW070 BKN150
     FM291400 28010KT P6SM BKN060 BKN120
     FM291800 28012G16KT P6SM SCT035 BKN045 PROB30 2918/2921 5SM
      -SHRA BKN035=

USA.gov is the U.S. government's official web portal to all federal, state and local government web resources and services.